Hikmet K — TCCO8 — position and weather

sailwx.info

Track history (hours):
 
Tides and Currents Weather Stations Pressure Air Temp Water Temp Dewpoint Dewpoint Depression Visibility Wind Speed Wind Dir Waves Ship Positions

Hikmet K

Last reported at 2017-Sep-14 13:54 UTC. Time now 2017-Sep-23 07:45 UTC.
Position N 36°03' E 030°24'.
Warning: this ship's position is 8 days out of date.

Length 94 m; draft 7.8 m.

Type: Cargo ship. MMSI: 271000724.

Date/timePositionNaut miles runAvg speedWind from/ knotsBaromVisibWave heightAir tempDewpointWater temp
2017-Sep-14 13:54N 36°03' E 030°24'611.0
2017-Sep-14 13:23N 36°03' E 030°31'710.9
2017-Sep-14 12:45N 36°03' E 030°40'911.0
2017-Sep-14 11:58N 36°03' E 030°51'1311.3
2017-Sep-14 10:50N 36°02' E 031°06'411.5
2017-Sep-14 10:27N 36°02' E 031°12'511.6
2017-Sep-14 09:59N 36°02' E 031°18'2911.7
2017-Sep-14 07:28N 36°00' E 031°55'711.6
2017-Sep-14 06:50N 36°00' E 032°04'611.5
2017-Sep-14 06:19N 36°00' E 032°11'511.6
2017-Sep-14 05:55N 35°60' E 032°17'511.6
2017-Sep-14 05:28N 35°60' E 032°23'511.3
2017-Sep-14 05:00N 35°60' E 032°30'611.0
2017-Sep-14 04:26N 35°59' E 032°38'511.0
2017-Sep-14 04:00N 35°59' E 032°43'5711.1
2017-Sep-13 22:53N 36°08' E 033°53'  
Track history (hours):
 
Tides and Currents Weather Stations Pressure Air Temp Water Temp Dewpoint Dewpoint Depression Visibility Wind Speed Wind Dir Waves Ship Positions

Hikmet K

Last reported at 2017-Sep-14 13:54 UTC. Time now 2017-Sep-23 07:45 UTC.
Position N 36°03' E 030°24'.
Warning: this ship's position is 8 days out of date.

Length 94 m; draft 7.8 m.

Type: Cargo ship. MMSI: 271000724.

Date/timePositionNaut miles runAvg speedWind from/ knotsBaromVisibWave heightAir tempDewpointWater temp
2017-Sep-14 13:54N 36°03' E 030°24'611.0
2017-Sep-14 13:23N 36°03' E 030°31'710.9
2017-Sep-14 12:45N 36°03' E 030°40'911.0
2017-Sep-14 11:58N 36°03' E 030°51'1311.3
2017-Sep-14 10:50N 36°02' E 031°06'411.5
2017-Sep-14 10:27N 36°02' E 031°12'511.6
2017-Sep-14 09:59N 36°02' E 031°18'2911.7
2017-Sep-14 07:28N 36°00' E 031°55'711.6
2017-Sep-14 06:50N 36°00' E 032°04'611.5
2017-Sep-14 06:19N 36°00' E 032°11'511.6
2017-Sep-14 05:55N 35°60' E 032°17'511.6
2017-Sep-14 05:28N 35°60' E 032°23'511.3
2017-Sep-14 05:00N 35°60' E 032°30'611.0
2017-Sep-14 04:26N 35°59' E 032°38'511.0
2017-Sep-14 04:00N 35°59' E 032°43'5711.1
2017-Sep-13 22:53N 36°08' E 033°53'  

Dump ship's entire track history